createdAt,value
2023-05-25T05:01:14.233Z,0.50
2023-05-25T05:02:14.239Z,0.50
2023-05-25T05:03:14.302Z,0.50
2023-05-25T05:04:14.265Z,0.50
2023-05-25T05:05:14.333Z,0.50
2023-05-25T05:06:14.349Z,0.50
2023-05-25T05:07:14.391Z,0.34
2023-05-25T05:08:14.436Z,0.34
2023-05-25T05:09:14.508Z,0.34
2023-05-25T05:10:14.539Z,0.34
2023-05-25T05:11:14.568Z,0.34
2023-05-25T05:12:14.583Z,0.34
2023-05-25T05:13:14.600Z,0.34
2023-05-25T05:14:14.617Z,0.34
2023-05-25T05:15:14.600Z,0.34
2023-05-25T05:16:14.613Z,0.34
2023-05-25T05:17:14.646Z,0.34
2023-05-25T05:18:14.623Z,0.34
2023-05-25T05:19:14.614Z,0.34
2023-05-25T05:20:14.711Z,0.34
2023-05-25T05:21:14.619Z,0.34
2023-05-25T05:22:14.609Z,0.34
2023-05-25T05:23:14.596Z,0.34
2023-05-25T05:24:14.610Z,0.34
2023-05-25T05:25:14.618Z,0.39
2023-05-25T05:26:14.641Z,0.45
2023-05-25T05:27:14.631Z,0.50
2023-05-25T05:28:14.668Z,0.51
2023-05-25T05:29:14.619Z,0.50
2023-05-25T05:30:14.639Z,0.50
2023-05-25T05:31:14.685Z,0.50
2023-05-25T05:32:14.693Z,0.50
2023-05-25T05:33:14.853Z,0.51
2023-05-25T05:34:14.680Z,0.51
2023-05-25T05:35:14.713Z,0.51
2023-05-25T05:36:14.766Z,0.50
2023-05-25T05:37:14.798Z,0.51
2023-05-25T05:38:14.863Z,0.50
2023-05-25T05:39:14.824Z,0.50
2023-05-25T05:40:14.846Z,0.50
2023-05-25T05:41:14.898Z,0.51
2023-05-25T05:42:14.959Z,0.51
2023-05-25T05:43:14.895Z,0.52
2023-05-25T05:44:14.971Z,0.51
2023-05-25T05:45:15.016Z,0.51
2023-05-25T05:46:15.101Z,0.52
2023-05-25T05:47:15.071Z,0.52
2023-05-25T05:48:15.118Z,0.51
2023-05-25T05:49:15.162Z,0.52
2023-05-25T05:50:15.221Z,0.50
2023-05-25T05:51:15.262Z,0.51
2023-05-25T05:52:15.337Z,0.51
2023-05-25T05:53:15.449Z,0.51
2023-05-25T05:54:15.381Z,0.50
2023-05-25T05:55:15.420Z,0.50
2023-05-25T05:56:15.446Z,0.54
2023-05-25T05:57:15.453Z,0.50
2023-05-25T05:58:15.549Z,0.52
2023-05-25T05:59:15.626Z,0.54
2023-05-25T06:00:15.631Z,0.54
2023-05-25T06:01:15.700Z,0.52
2023-05-25T06:02:15.842Z,0.55
2023-05-25T06:03:15.870Z,0.56
2023-05-25T06:04:15.888Z,0.59
2023-05-25T06:05:16.034Z,0.58
2023-05-25T06:06:16.037Z,0.58
2023-05-25T06:07:16.085Z,0.59
2023-05-25T06:08:16.140Z,0.59
2023-05-25T06:09:16.194Z,0.60
2023-05-25T06:10:16.227Z,0.62
2023-05-25T06:11:16.284Z,0.60
2023-05-25T06:12:16.311Z,0.63
2023-05-25T06:13:16.362Z,0.66
2023-05-25T06:14:16.369Z,0.63
2023-05-25T06:15:16.434Z,0.66
2023-05-25T06:16:16.461Z,0.65
2023-05-25T06:17:16.552Z,0.62
2023-05-25T06:18:16.555Z,0.64
2023-05-25T06:19:16.580Z,0.65
2023-05-25T06:20:16.652Z,0.65
2023-05-25T06:21:16.629Z,0.63
2023-05-25T06:22:16.647Z,0.61
2023-05-25T06:23:16.695Z,0.62
2023-05-25T06:24:16.722Z,0.63
2023-05-25T06:25:16.736Z,0.64
2023-05-25T06:26:16.771Z,0.62
2023-05-25T06:27:16.798Z,0.65
2023-05-25T06:28:16.851Z,0.66
2023-05-25T06:29:17.178Z,0.65
2023-05-25T06:30:16.871Z,0.61
2023-05-25T06:31:17.041Z,0.66
2023-05-25T06:32:16.977Z,0.66
2023-05-25T06:33:16.963Z,0.66
2023-05-25T06:34:17.013Z,0.66
2023-05-25T06:35:17.017Z,0.66
2023-05-25T06:36:17.031Z,0.61
2023-05-25T06:37:17.095Z,0.61
2023-05-25T06:38:17.076Z,0.64
2023-05-25T06:39:17.086Z,0.65
2023-05-25T06:40:17.099Z,0.63
2023-05-25T06:41:17.135Z,0.63
2023-05-25T06:42:17.138Z,0.64
2023-05-25T07:00:10.258Z,0.50
2023-05-25T07:01:10.365Z,0.50
2023-05-25T07:02:10.267Z,0.50
2023-05-25T07:03:10.305Z,0.50
2023-05-25T07:04:10.247Z,0.50
2023-05-25T07:05:10.262Z,0.48
2023-05-25T07:06:10.245Z,0.49
2023-05-25T07:07:10.217Z,0.51
2023-05-25T07:08:10.219Z,0.51
2023-05-25T07:09:10.217Z,0.52
2023-05-25T07:10:10.209Z,0.52
2023-05-25T07:11:10.192Z,0.49
2023-05-25T07:12:10.188Z,0.48
2023-05-25T07:13:10.222Z,0.50
2023-05-25T07:14:10.206Z,0.52
2023-05-25T07:15:10.176Z,0.50
2023-05-25T07:16:10.186Z,0.53
2023-05-25T07:17:10.173Z,0.51
2023-05-25T07:18:10.176Z,0.51
2023-05-25T07:19:10.149Z,0.49
2023-05-25T07:20:10.234Z,0.52
2023-05-25T07:21:10.206Z,0.51
2023-05-25T07:22:10.153Z,0.52
2023-05-25T07:23:10.118Z,0.54
2023-05-25T07:24:10.095Z,0.55
2023-05-25T07:25:10.098Z,0.50
2023-05-25T07:26:10.095Z,0.52
2023-05-25T07:27:10.204Z,0.50
2023-05-25T07:28:10.109Z,0.53
2023-05-25T07:29:10.065Z,0.52
2023-05-25T07:30:10.377Z,0.51
2023-05-25T07:31:10.099Z,0.53
2023-05-25T07:32:10.064Z,0.52
2023-05-25T07:33:10.193Z,0.53
2023-05-25T07:34:10.048Z,0.52
2023-05-25T07:35:10.054Z,0.51
2023-05-25T07:36:10.040Z,0.53
2023-05-25T07:37:10.011Z,0.55
2023-05-25T07:38:10.036Z,0.52
2023-05-25T07:39:09.983Z,0.53
2023-05-25T07:40:10.038Z,0.51
2023-05-25T07:41:10.023Z,0.51
2023-05-25T07:42:09.992Z,0.55
2023-05-25T07:43:10.016Z,0.57
2023-05-25T07:44:09.949Z,0.63
2023-05-25T07:45:09.973Z,0.63
2023-05-25T07:46:09.978Z,0.64
2023-05-25T07:47:10.064Z,0.67
2023-05-25T07:48:09.988Z,0.75
2023-05-25T07:49:09.948Z,0.74
2023-05-25T07:50:09.931Z,0.79
2023-05-25T07:51:09.937Z,0.84
2023-05-25T07:52:10.049Z,0.92
2023-05-25T07:53:09.940Z,0.85
2023-05-25T07:54:09.908Z,0.85
2023-05-25T07:55:09.946Z,0.95
2023-05-25T07:56:10.717Z,0.91
2023-05-25T07:57:09.959Z,0.97
2023-05-25T07:58:09.867Z,0.99
2023-05-25T07:59:09.850Z,0.98
2023-05-25T08:00:09.887Z,0.98
2023-05-25T08:01:09.835Z,0.93
2023-05-25T08:02:09.964Z,0.92
2023-05-25T08:03:09.981Z,0.96
2023-05-25T08:04:09.899Z,0.91
2023-05-25T08:05:09.905Z,0.92
2023-05-25T08:06:09.851Z,0.88
2023-05-25T08:07:09.808Z,0.91
2023-05-25T08:08:09.847Z,0.86
2023-05-25T08:09:09.788Z,0.79
2023-05-25T08:10:09.837Z,0.67
2023-05-25T08:11:09.777Z,0.65
2023-05-25T08:13:09.766Z,0.61
2023-05-25T08:14:09.764Z,0.61
2023-05-25T08:15:09.762Z,0.63
2023-05-25T08:16:09.781Z,0.59
2023-05-25T08:17:09.765Z,0.60
2023-05-25T08:18:09.781Z,0.52
2023-05-25T08:19:09.702Z,0.52
2023-05-25T08:20:09.789Z,0.50
2023-05-25T08:21:09.712Z,0.52
2023-05-25T08:22:09.728Z,0.52
2023-05-25T08:23:09.705Z,0.61
2023-05-25T08:24:09.742Z,0.60
2023-05-25T08:25:09.689Z,0.58
2023-05-25T08:26:26.083Z,0.56
2023-05-25T08:27:10.675Z,0.56
2023-05-25T08:28:09.679Z,0.57
2023-05-25T08:29:09.685Z,0.59
2023-05-25T08:30:09.664Z,0.64
2023-05-25T08:31:09.631Z,0.72
2023-05-25T08:32:09.653Z,0.76
2023-05-25T08:33:09.668Z,0.78
2023-05-25T08:34:09.596Z,0.83
2023-05-25T08:35:09.591Z,0.87
2023-05-25T08:36:09.558Z,0.83
2023-05-25T08:37:09.584Z,0.86
2023-05-25T08:38:09.603Z,0.85
2023-05-25T08:39:09.567Z,0.86
2023-05-25T08:43:17.454Z,0.50
2023-05-25T08:44:17.409Z,0.50
2023-05-25T08:45:33.660Z,0.50
2023-05-25T08:46:18.394Z,0.50
2023-05-25T08:47:17.371Z,0.50
2023-05-25T08:48:31.807Z,0.50
2023-05-25T08:49:18.534Z,0.50
2023-05-25T08:51:08.793Z,0.50
2023-05-25T08:52:07.157Z,0.50
2023-05-25T08:53:07.160Z,0.50
2023-05-25T08:54:07.125Z,0.50
2023-05-25T08:55:07.117Z,0.50
2023-05-25T08:56:07.153Z,0.50
2023-05-25T08:57:07.143Z,0.52
2023-05-25T08:58:07.133Z,0.52
2023-05-25T08:59:07.245Z,0.52
2023-05-25T09:00:07.130Z,0.52
2023-05-25T09:01:07.112Z,0.50
2023-05-25T09:02:07.116Z,0.46
2023-05-25T09:03:07.237Z,0.41
2023-05-25T09:04:07.158Z,0.50
2023-05-25T09:05:07.098Z,0.48
2023-05-25T09:06:07.089Z,0.48
2023-05-25T09:07:10.828Z,0.51
2023-05-25T09:08:07.063Z,0.51
2023-05-25T09:09:07.025Z,0.52
2023-05-25T09:10:07.057Z,0.52
2023-05-25T09:12:07.013Z,0.54
2023-05-25T09:13:20.278Z,0.53
2023-05-25T09:14:08.008Z,0.51
2023-05-25T09:15:06.980Z,0.54
2023-05-25T09:16:06.999Z,0.55
2023-05-25T09:17:06.993Z,0.63
2023-05-25T09:18:07.017Z,0.75
2023-05-25T09:19:06.975Z,0.79
2023-05-25T09:20:06.991Z,0.83
2023-05-25T09:21:06.966Z,0.84
2023-05-25T09:22:16.071Z,0.88
2023-05-25T09:23:07.995Z,0.64
2023-05-25T09:24:06.932Z,0.53
2023-05-25T09:25:06.930Z,0.53
2023-05-25T09:26:06.952Z,0.64
2023-05-25T09:27:06.927Z,0.70
2023-05-25T09:28:24.725Z,0.77
2023-05-25T09:29:07.941Z,0.67
2023-05-25T09:30:06.898Z,0.48
2023-05-25T09:31:06.922Z,0.44
2023-05-25T09:32:07.013Z,0.54
2023-05-25T09:33:06.958Z,0.60
2023-05-25T09:34:06.880Z,0.61
2023-05-25T09:35:06.863Z,0.71
2023-05-25T09:36:06.872Z,0.69
2023-05-25T09:37:06.991Z,0.69
2023-05-25T09:38:07.089Z,0.71
2023-05-25T09:39:07.128Z,0.76
2023-05-25T09:40:07.055Z,0.71
2023-05-25T09:41:07.071Z,0.77
2023-05-25T09:42:07.162Z,0.82
2023-05-25T09:43:07.185Z,0.78
2023-05-25T09:44:11.777Z,0.77
2023-05-25T09:45:07.336Z,0.76
2023-05-25T09:46:07.288Z,0.71
2023-05-25T09:47:07.269Z,0.65
2023-05-25T09:48:07.230Z,0.72
2023-05-25T09:49:07.226Z,0.73
2023-05-25T09:50:07.196Z,0.77
2023-05-25T09:51:07.213Z,0.66
2023-05-25T09:52:07.329Z,0.58
2023-05-25T09:53:07.196Z,0.49
2023-05-25T09:54:07.187Z,0.51
2023-05-25T09:55:07.174Z,0.51
2023-05-25T09:56:07.184Z,0.50
2023-05-25T09:57:07.227Z,0.51
2023-05-25T09:58:07.278Z,0.51
2023-05-25T09:59:07.228Z,0.54
2023-05-25T10:00:07.232Z,0.52
2023-05-25T10:01:07.257Z,0.49
2023-05-25T10:02:07.366Z,0.53
2023-05-25T10:03:07.286Z,0.50
2023-05-25T10:04:07.222Z,0.52
2023-05-25T10:05:07.312Z,0.50
2023-05-25T10:06:07.234Z,0.52
2023-05-25T10:07:07.266Z,0.54
2023-05-25T10:08:07.236Z,0.53
2023-05-25T10:09:07.264Z,0.50
2023-05-25T10:10:07.255Z,0.53
2023-05-25T10:11:07.261Z,0.60
2023-05-25T10:12:07.314Z,0.78
2023-05-25T10:13:07.330Z,0.85
2023-05-25T10:14:07.335Z,0.80
2023-05-25T10:15:07.304Z,0.89
2023-05-25T10:16:07.368Z,0.89
2023-05-25T10:17:07.320Z,0.91
2023-05-25T10:18:07.331Z,0.78
2023-05-25T10:19:07.350Z,0.76
2023-05-25T10:20:07.328Z,0.79
2023-05-25T10:21:07.437Z,0.79
2023-05-25T10:22:07.303Z,0.69
2023-05-25T10:23:07.343Z,0.79
2023-05-25T10:24:07.337Z,0.83
2023-05-25T10:25:07.382Z,1.06
2023-05-25T10:26:07.441Z,1.29
2023-05-25T10:27:18.352Z,1.45
2023-05-25T10:28:08.403Z,1.46
2023-05-25T10:29:07.333Z,1.47
2023-05-25T10:30:07.333Z,1.49
2023-05-25T10:31:07.384Z,1.47
2023-05-25T10:32:07.487Z,1.55
2023-05-25T10:33:07.333Z,1.56
2023-05-25T10:34:07.331Z,1.84
2023-05-25T10:35:07.326Z,1.67
2023-05-25T10:36:10.624Z,1.75
2023-05-25T10:37:07.271Z,1.75
2023-05-25T10:38:07.314Z,1.77
2023-05-25T10:39:07.237Z,1.78
2023-05-25T10:40:07.275Z,1.84
2023-05-25T10:41:07.270Z,2.09
2023-05-25T10:42:07.276Z,1.95
2023-05-25T10:43:07.226Z,1.84
2023-05-25T10:44:07.249Z,1.89
2023-05-25T10:45:07.235Z,2.17
2023-05-25T10:46:07.200Z,2.23
2023-05-25T10:47:07.235Z,2.24
2023-05-25T10:48:07.265Z,2.20
2023-05-25T10:49:07.205Z,2.24
2023-05-25T10:50:07.167Z,2.23
2023-05-25T10:51:09.055Z,2.27
2023-05-25T10:52:07.164Z,2.27
2023-05-25T10:53:07.165Z,2.28
2023-05-25T10:54:07.184Z,2.23
2023-05-25T10:55:07.155Z,2.27
2023-05-25T10:56:07.131Z,2.13
2023-05-25T10:57:07.129Z,2.19
2023-05-25T10:58:07.111Z,2.34
2023-05-25T10:59:07.141Z,2.29
2023-05-25T11:00:07.292Z,2.32
2023-05-25T11:01:07.286Z,2.21
2023-05-25T11:02:09.364Z,2.15
2023-05-25T11:03:07.177Z,2.17
2023-05-25T11:04:07.326Z,2.11
2023-05-25T11:05:07.285Z,2.05
2023-05-25T11:06:07.349Z,2.13
2023-05-25T11:07:07.387Z,2.30
2023-05-25T11:08:08.662Z,2.15
2023-05-25T11:09:07.530Z,2.12
2023-05-25T11:10:07.571Z,2.15
2023-05-25T11:11:07.642Z,2.12
2023-05-25T11:12:07.721Z,2.17
2023-05-25T11:13:07.731Z,2.11
2023-05-25T11:14:07.852Z,2.15
2023-05-25T11:15:07.865Z,2.18
2023-05-25T11:16:07.915Z,2.12
2023-05-25T11:17:08.269Z,2.11
2023-05-25T11:18:08.151Z,2.13
2023-05-25T11:19:08.112Z,2.14
2023-05-25T11:20:08.235Z,2.10
2023-05-25T11:21:08.234Z,2.11
2023-05-25T11:22:08.293Z,2.11
2023-05-25T11:23:08.338Z,2.11
2023-05-25T11:24:08.350Z,2.04
2023-05-25T11:25:08.411Z,2.08
2023-05-25T11:26:08.532Z,2.02
2023-05-25T11:27:08.567Z,1.98
2023-05-25T11:28:08.612Z,2.01
2023-05-25T11:29:08.672Z,1.92
2023-05-25T11:30:08.723Z,1.96
2023-05-25T11:31:08.827Z,1.95
2023-05-25T11:32:08.850Z,1.99
2023-05-25T11:33:09.008Z,1.99
2023-05-25T11:34:08.916Z,1.97
2023-05-25T11:35:08.988Z,1.98
2023-05-25T11:36:09.076Z,1.99
2023-05-25T11:37:10.431Z,1.98
2023-05-25T11:38:09.113Z,2.04
2023-05-25T11:39:20.423Z,2.01
2023-05-25T11:40:10.077Z,2.01
2023-05-25T11:41:09.107Z,2.02
2023-05-25T11:42:09.064Z,2.02
2023-05-25T11:43:09.043Z,2.02
2023-05-25T11:44:09.044Z,2.01
2023-05-25T11:45:09.038Z,2.01
2023-05-25T11:46:09.135Z,2.02
2023-05-25T11:47:09.079Z,1.97
2023-05-25T11:48:09.032Z,1.96
2023-05-25T11:49:09.001Z,2.04
2023-05-25T11:50:09.019Z,2.05
2023-05-25T11:51:09.145Z,2.04
2023-05-25T11:52:09.118Z,2.08
2023-05-25T11:53:09.130Z,2.11
2023-05-25T11:54:09.221Z,2.15
2023-05-25T11:55:09.250Z,2.15
2023-05-25T11:56:09.262Z,2.18
2023-05-25T11:57:09.294Z,2.20
2023-05-25T11:58:09.394Z,2.21
2023-05-25T11:59:09.396Z,2.19
2023-05-25T12:00:09.446Z,2.13
2023-05-25T12:01:09.495Z,2.18
2023-05-25T12:02:09.499Z,2.19
2023-05-25T12:03:09.610Z,2.20
2023-05-25T12:04:09.659Z,2.14
2023-05-25T12:05:11.142Z,2.15
2023-05-25T12:06:09.684Z,2.17
2023-05-25T12:07:09.705Z,2.22
2023-05-25T12:08:09.763Z,2.23
2023-05-25T12:09:09.798Z,2.37
2023-05-25T12:10:09.923Z,2.25
2023-05-25T12:11:09.926Z,2.00
2023-05-25T12:12:09.962Z,1.72
2023-05-25T12:13:09.919Z,1.62
2023-05-25T12:14:09.996Z,1.53
2023-05-25T12:15:10.045Z,1.32
2023-05-25T12:16:10.054Z,1.33
2023-05-25T12:17:10.144Z,1.26
2023-05-25T12:18:10.236Z,1.37
2023-05-25T12:19:10.181Z,1.40
2023-05-25T12:20:10.246Z,1.44
2023-05-25T12:21:10.297Z,1.53
2023-05-25T12:22:10.283Z,1.48
2023-05-25T12:23:10.272Z,1.37
2023-05-25T12:24:10.296Z,1.38
2023-05-25T12:25:10.313Z,1.51
2023-05-25T12:26:10.357Z,1.38
2023-05-25T12:27:12.049Z,1.24
2023-05-25T12:28:10.659Z,1.38
2023-05-25T12:29:10.405Z,1.44
2023-05-25T12:30:10.560Z,1.16
2023-05-25T12:31:10.535Z,1.29
2023-05-25T12:32:10.552Z,1.30
2023-05-25T12:33:10.638Z,1.33
2023-05-25T12:34:10.571Z,1.41
2023-05-25T12:35:10.587Z,1.39
2023-05-25T12:36:10.613Z,1.32
2023-05-25T12:37:10.635Z,1.43
2023-05-25T12:38:10.644Z,1.46
2023-05-25T12:39:10.689Z,1.56
2023-05-25T12:40:10.705Z,1.92
2023-05-25T12:41:10.678Z,2.93
2023-05-25T12:42:10.727Z,2.72
2023-05-25T12:43:10.737Z,2.81
2023-05-25T12:44:10.798Z,3.25
2023-05-25T12:45:10.769Z,3.42
2023-05-25T12:46:10.885Z,2.71
2023-05-25T12:47:10.793Z,2.58
2023-05-25T12:48:10.984Z,2.60
2023-05-25T12:49:10.813Z,2.46
2023-05-25T12:50:10.841Z,2.85
2023-05-25T12:51:10.823Z,3.11
2023-05-25T12:52:10.867Z,2.85
2023-05-25T12:53:10.931Z,2.98
2023-05-25T12:54:10.938Z,2.34
2023-05-25T12:55:10.916Z,3.25
2023-05-25T12:56:10.940Z,4.36
2023-05-25T12:57:10.951Z,3.93
2023-05-25T12:58:10.973Z,3.83
2023-05-25T12:59:10.991Z,4.38
2023-05-25T13:00:10.980Z,3.24
2023-05-25T13:01:11.016Z,2.42
2023-05-25T13:02:11.116Z,2.51
2023-05-25T13:03:11.012Z,2.56
2023-05-25T13:04:11.076Z,2.41
2023-05-25T13:05:11.091Z,2.54
2023-05-25T13:06:11.087Z,2.40
2023-05-25T13:07:11.065Z,2.13
2023-05-25T13:08:11.103Z,1.35
2023-05-25T13:09:11.185Z,1.04
2023-05-25T13:10:11.161Z,0.60
2023-05-25T13:11:11.197Z,0.52
2023-05-25T13:12:11.242Z,0.51
2023-05-25T13:13:11.255Z,0.59
2023-05-25T13:14:11.275Z,0.52
2023-05-25T13:15:11.306Z,0.52
2023-05-25T13:16:11.392Z,0.51
2023-05-25T13:17:11.384Z,0.57
2023-05-25T13:18:11.515Z,0.59
2023-05-25T13:19:11.434Z,0.61
2023-05-25T13:20:11.526Z,0.64
2023-05-25T13:21:11.516Z,0.61
2023-05-25T13:22:11.540Z,0.54
2023-05-25T13:23:11.584Z,0.52
2023-05-25T13:24:11.633Z,0.52
2023-05-25T13:25:11.652Z,0.55
2023-05-25T13:26:11.762Z,0.56
2023-05-25T13:27:11.728Z,0.65
2023-05-25T13:28:11.786Z,0.59
2023-05-25T13:29:11.835Z,0.62
2023-05-25T13:30:11.917Z,0.53
2023-05-25T13:31:11.904Z,0.51
2023-05-25T13:32:12.103Z,0.52
2023-05-25T13:33:12.034Z,0.53
2023-05-25T13:34:12.080Z,0.60
2023-05-25T13:35:12.046Z,0.59
2023-05-25T13:36:12.107Z,0.55
2023-05-25T13:37:12.140Z,0.53
2023-05-25T13:38:12.827Z,0.52
2023-05-25T13:39:12.151Z,0.55
2023-05-25T13:40:12.226Z,0.50
2023-05-25T13:41:12.243Z,0.51
2023-05-25T13:42:12.270Z,0.58
2023-05-25T13:43:12.289Z,0.62
2023-05-25T13:44:12.939Z,0.58
2023-05-25T13:45:12.369Z,0.53
2023-05-25T13:46:25.828Z,0.53
2023-05-25T13:47:13.460Z,0.53
2023-05-25T13:48:12.418Z,0.54
2023-05-25T13:49:13.378Z,0.53
2023-05-25T13:50:12.338Z,0.58
2023-05-25T13:51:12.327Z,0.56
2023-05-25T13:52:12.361Z,0.65
2023-05-25T13:53:12.296Z,0.65
2023-05-25T13:54:12.360Z,0.57
2023-05-25T13:55:12.314Z,0.50
2023-05-25T13:56:12.356Z,0.61
2023-05-25T13:57:12.322Z,0.56
2023-05-25T13:58:12.295Z,0.61
2023-05-25T13:59:12.320Z,0.59
2023-05-25T14:00:12.308Z,0.64
2023-05-25T14:01:12.356Z,0.67
2023-05-25T14:02:12.312Z,0.68
2023-05-25T14:03:12.368Z,0.80
2023-05-25T14:04:12.309Z,0.88
2023-05-25T14:05:12.267Z,0.94
2023-05-25T14:06:12.224Z,0.96
2023-05-25T14:07:12.236Z,0.98
2023-05-25T14:08:12.236Z,1.04
2023-05-25T14:09:13.509Z,1.08
2023-05-25T14:10:12.238Z,1.12
2023-05-25T14:11:12.223Z,1.20
2023-05-25T14:12:14.239Z,1.24
2023-05-25T14:13:12.243Z,1.35
2023-05-25T14:14:27.035Z,1.38
2023-05-25T14:15:13.228Z,1.38
2023-05-25T14:16:12.300Z,1.40
2023-05-25T14:17:12.239Z,1.45
2023-05-25T14:18:12.248Z,1.54
2023-05-25T14:19:12.202Z,1.72
2023-05-25T14:20:12.230Z,1.83
2023-05-25T14:21:12.187Z,1.88
2023-05-25T14:22:14.391Z,1.91
2023-05-25T14:23:14.432Z,1.97
2023-05-25T14:24:12.204Z,2.08
2023-05-25T14:25:12.176Z,2.11
2023-05-25T14:26:12.163Z,2.16
2023-05-25T14:27:12.166Z,2.20
2023-05-25T14:28:12.160Z,2.29
2023-05-25T14:29:13.040Z,2.28
2023-05-25T14:30:12.119Z,2.38
2023-05-25T14:31:12.178Z,2.41
2023-05-25T14:32:12.134Z,2.45
2023-05-25T14:33:12.185Z,2.50
2023-05-25T14:34:12.079Z,2.54
2023-05-25T14:35:12.100Z,2.56
2023-05-25T14:36:12.092Z,3.07
2023-05-25T14:37:12.079Z,3.16
2023-05-25T14:38:12.096Z,3.57
2023-05-25T14:39:15.088Z,3.77
2023-05-25T14:40:13.068Z,3.71
2023-05-25T14:41:12.060Z,3.32
2023-05-25T14:42:12.064Z,3.35
2023-05-25T14:43:12.083Z,3.36
2023-05-25T14:44:12.055Z,3.63
2023-05-25T14:45:13.434Z,3.73
2023-05-25T14:46:12.122Z,3.75
2023-05-25T14:47:12.291Z,3.90
2023-05-25T14:48:16.600Z,4.10
2023-05-25T14:49:12.232Z,4.11
2023-05-25T14:50:12.193Z,4.14
2023-05-25T14:51:12.200Z,4.22
2023-05-25T14:52:12.240Z,4.32
2023-05-25T14:53:12.231Z,4.41
2023-05-25T14:54:12.187Z,4.35
2023-05-25T14:55:12.207Z,4.42
2023-05-25T14:56:12.158Z,4.35
2023-05-25T14:57:12.227Z,4.39
2023-05-25T14:58:12.186Z,4.43
2023-05-25T14:59:12.139Z,4.45
2023-05-25T15:00:12.209Z,4.50
2023-05-25T15:01:12.312Z,4.49
2023-05-25T15:02:12.395Z,4.45
2023-05-25T15:03:12.447Z,4.41
2023-05-25T15:04:12.473Z,4.51
2023-05-25T15:05:12.514Z,4.47
2023-05-25T15:06:12.558Z,4.41
2023-05-25T15:07:13.124Z,4.38
2023-05-25T15:08:12.697Z,4.52
2023-05-25T15:09:12.744Z,4.46
2023-05-25T15:10:12.824Z,4.47
2023-05-25T15:11:12.883Z,4.40
2023-05-25T15:12:12.953Z,4.49
2023-05-25T15:13:13.551Z,4.45
2023-05-25T15:14:13.049Z,4.48
2023-05-25T15:15:13.135Z,4.45
2023-05-25T15:16:13.229Z,4.46
2023-05-25T15:17:13.324Z,4.46
2023-05-25T15:18:13.382Z,4.43
2023-05-25T15:19:15.921Z,4.40
2023-05-25T15:20:13.394Z,4.40
2023-05-25T15:21:13.347Z,4.41
2023-05-25T15:22:13.341Z,4.40
2023-05-25T15:23:13.342Z,4.40
2023-05-25T15:24:13.369Z,4.36
2023-05-25T15:25:18.925Z,4.37
2023-05-25T15:26:14.448Z,4.38
2023-05-25T15:27:13.289Z,4.37
2023-05-25T15:28:13.273Z,4.38
2023-05-25T15:29:13.294Z,4.39
2023-05-25T15:30:13.264Z,4.34
2023-05-25T15:31:13.314Z,4.37
2023-05-25T15:32:13.346Z,4.24
2023-05-25T15:33:13.285Z,4.34
2023-05-25T15:34:13.252Z,4.31
2023-05-25T15:35:13.236Z,4.24
2023-05-25T15:36:13.331Z,4.23
2023-05-25T15:37:13.446Z,4.21
2023-05-25T15:38:13.405Z,4.23
2023-05-25T15:39:13.452Z,4.21
2023-05-25T15:40:13.546Z,4.14
2023-05-25T15:41:13.528Z,4.19
2023-05-25T15:42:13.583Z,4.12
2023-05-25T15:43:13.652Z,4.11
2023-05-25T15:44:13.735Z,4.11
2023-05-25T15:45:13.759Z,4.06
2023-05-25T15:46:13.794Z,4.07
2023-05-25T15:47:13.860Z,3.96
2023-05-25T15:48:13.898Z,3.98
2023-05-25T15:49:13.962Z,3.97
2023-05-25T15:50:14.013Z,4.00
2023-05-25T15:51:14.058Z,4.07
2023-05-25T15:52:14.088Z,3.93
2023-05-25T15:53:14.174Z,4.02
2023-05-25T15:54:14.980Z,3.97
2023-05-25T15:55:14.268Z,3.95
2023-05-25T15:56:14.295Z,3.95
2023-05-25T15:57:14.501Z,3.96
2023-05-25T15:58:14.485Z,3.95
2023-05-25T15:59:14.493Z,3.91
2023-05-25T16:00:14.521Z,3.89
2023-05-25T16:01:14.642Z,3.83
2023-05-25T16:02:14.697Z,3.91
2023-05-25T16:03:14.702Z,3.85
2023-05-25T16:04:14.842Z,3.83
2023-05-25T16:05:14.789Z,3.86
2023-05-25T16:06:14.854Z,3.88
2023-05-25T16:07:14.904Z,3.80
2023-05-25T16:08:14.972Z,3.73
2023-05-25T16:09:15.000Z,3.80
2023-05-25T16:10:15.063Z,3.78
2023-05-25T16:11:15.133Z,3.84
2023-05-25T16:12:15.191Z,3.82
2023-05-25T16:13:15.220Z,3.74
2023-05-25T16:14:15.245Z,3.73
2023-05-25T16:15:15.304Z,3.78
2023-05-25T16:16:15.347Z,3.74
2023-05-25T16:17:15.390Z,3.72
2023-05-25T16:18:15.424Z,3.64
2023-05-25T16:19:15.584Z,3.74
2023-05-25T16:20:15.605Z,3.55
2023-05-25T16:21:15.617Z,3.66
2023-05-25T16:22:15.668Z,3.59
2023-05-25T16:23:15.737Z,3.64
2023-05-25T16:24:15.768Z,3.65
2023-05-25T16:25:15.808Z,3.64
2023-05-25T16:26:15.886Z,3.67
2023-05-25T16:27:15.916Z,3.59
2023-05-25T16:28:15.973Z,3.62
2023-05-25T16:29:15.979Z,3.60
2023-05-25T16:30:16.071Z,3.55
2023-05-25T16:31:16.129Z,3.61
2023-05-25T16:32:16.213Z,3.53
2023-05-25T16:33:16.277Z,3.62
2023-05-25T16:34:16.235Z,3.59
2023-05-25T16:35:16.334Z,3.59
2023-05-25T16:36:16.345Z,3.54
2023-05-25T16:37:16.418Z,3.49
2023-05-25T16:38:16.439Z,3.48
2023-05-25T16:39:16.499Z,3.47
2023-05-25T16:40:16.567Z,3.50
2023-05-25T16:41:16.596Z,3.45
2023-05-25T16:42:16.668Z,3.41
2023-05-25T16:43:16.693Z,3.41
2023-05-25T16:44:16.762Z,3.48
2023-05-25T16:45:16.861Z,3.43
2023-05-25T16:46:16.945Z,3.42
2023-05-25T16:47:16.933Z,3.43
2023-05-25T16:48:17.036Z,3.43
2023-05-25T16:49:17.082Z,3.34
2023-05-25T16:50:17.109Z,3.36
2023-05-25T16:51:17.127Z,3.33
2023-05-25T16:52:17.208Z,3.38
2023-05-25T16:53:17.254Z,3.37
2023-05-25T16:54:17.330Z,3.31
2023-05-25T16:55:17.332Z,3.33
2023-05-25T16:56:17.395Z,3.37
2023-05-25T16:57:17.564Z,3.35
2023-05-25T16:58:17.485Z,3.31
2023-05-25T16:59:17.526Z,3.35
2023-05-25T17:00:17.613Z,3.30
